createdAt,value
2023-05-02T00:00:52.069Z,9.90
2023-05-02T00:03:19.690Z,9.90
2023-05-02T00:05:46.936Z,9.90
2023-05-02T00:08:14.280Z,9.90
2023-05-02T00:10:41.338Z,9.90
2023-05-02T00:13:08.703Z,9.90
2023-05-02T00:15:35.860Z,9.90
2023-05-02T00:18:03.238Z,9.90
2023-05-02T00:20:30.428Z,9.90
2023-05-02T00:22:58.028Z,9.90
2023-05-02T00:25:25.069Z,9.80
2023-05-02T00:27:52.864Z,9.90
2023-05-02T00:30:21.178Z,9.90
2023-05-02T00:32:48.458Z,9.80
2023-05-02T00:35:15.748Z,9.80
2023-05-02T00:37:43.433Z,9.80
2023-05-02T00:40:11.243Z,9.80
2023-05-02T00:42:38.561Z,9.70
2023-05-02T00:45:06.795Z,9.70
2023-05-02T00:47:34.595Z,9.70
2023-05-02T00:50:02.655Z,9.70
2023-05-02T00:52:30.224Z,9.80
2023-05-02T00:54:57.848Z,9.70
2023-05-02T00:57:27.871Z,9.70
2023-05-02T00:59:55.393Z,9.70
2023-05-02T01:02:59.626Z,9.70
2023-05-02T01:05:43.941Z,9.70
2023-05-02T01:08:28.462Z,9.80
2023-05-02T01:11:17.444Z,9.90
2023-05-02T01:13:46.935Z,9.90
2023-05-02T01:16:16.197Z,9.90
2023-05-02T01:18:44.935Z,10.00
2023-05-02T01:21:13.097Z,10.00
2023-05-02T01:23:46.130Z,10.00
2023-05-02T01:26:31.053Z,10.00
2023-05-02T01:29:07.806Z,10.00
2023-05-02T01:31:37.992Z,10.00
2023-05-02T01:34:10.284Z,10.00
2023-05-02T01:36:45.794Z,10.00
2023-05-02T01:39:18.622Z,10.00
2023-05-02T01:41:49.209Z,10.00
2023-05-02T01:44:18.556Z,10.10
2023-05-02T01:46:46.383Z,10.10
2023-05-02T01:49:13.916Z,10.10
2023-05-02T01:51:48.845Z,10.00
2023-05-02T01:54:17.853Z,10.00
2023-05-02T01:56:45.619Z,10.00
2023-05-02T01:59:19.801Z,10.00
2023-05-02T02:01:48.364Z,9.90
2023-05-02T02:04:16.734Z,9.90
2023-05-02T02:06:48.416Z,9.90
2023-05-02T02:09:16.048Z,9.90
2023-05-02T02:11:50.912Z,9.80
2023-05-02T02:14:22.810Z,9.80
2023-05-02T02:16:53.622Z,9.80
2023-05-02T02:19:22.775Z,9.70
2023-05-02T02:21:50.876Z,9.70
2023-05-02T02:24:22.701Z,9.60
2023-05-02T02:26:50.901Z,9.60
2023-05-02T02:29:18.283Z,9.50
2023-05-02T02:31:46.814Z,9.50
2023-05-02T02:34:15.709Z,9.50
2023-05-02T02:36:56.341Z,9.40
2023-05-02T02:40:01.479Z,9.40
2023-05-02T02:42:40.978Z,9.40
2023-05-02T02:45:38.524Z,9.40
2023-05-02T02:48:16.633Z,9.40
2023-05-02T02:51:04.492Z,9.40
2023-05-02T02:53:49.330Z,9.40
2023-05-02T02:56:39.564Z,9.30
2023-05-02T02:59:12.573Z,9.30
2023-05-02T03:01:44.063Z,9.20
2023-05-02T03:04:13.555Z,9.30
2023-05-02T03:06:41.515Z,9.00
2023-05-02T03:09:18.640Z,9.90
2023-05-02T03:11:47.727Z,9.40
2023-05-02T03:14:15.933Z,9.30
2023-05-02T03:16:43.316Z,9.30
2023-05-02T03:19:14.864Z,9.30
2023-05-02T03:21:42.756Z,9.30
2023-05-02T03:24:19.273Z,9.40
2023-05-02T03:26:48.139Z,9.40
2023-05-02T03:29:17.950Z,9.40
2023-05-02T03:31:45.760Z,9.40
2023-05-02T03:34:13.320Z,9.40
2023-05-02T03:36:41.564Z,9.40
2023-05-02T03:39:08.772Z,9.50
2023-05-02T03:41:36.094Z,9.50
2023-05-02T03:44:07.692Z,9.60
2023-05-02T03:46:35.233Z,9.70
2023-05-02T03:49:06.048Z,9.80
2023-05-02T03:51:34.216Z,9.90
2023-05-02T03:54:02.831Z,10.10
2023-05-02T03:56:30.262Z,10.30
2023-05-02T03:59:08.953Z,10.50
2023-05-02T04:01:36.697Z,10.80
2023-05-02T04:04:04.511Z,10.90
2023-05-02T04:06:38.329Z,11.00
2023-05-02T04:09:07.924Z,11.30
2023-05-02T04:11:49.301Z,11.60
2023-05-02T04:14:16.407Z,12.10
2023-05-02T04:16:49.341Z,12.40
2023-05-02T04:19:19.773Z,12.80
2023-05-02T04:21:47.548Z,13.00
2023-05-02T04:24:15.342Z,13.30
2023-05-02T04:26:43.102Z,13.30
2023-05-02T04:29:13.591Z,13.10
2023-05-02T04:31:42.424Z,12.80
2023-05-02T04:34:10.810Z,13.00
2023-05-02T04:36:45.805Z,13.40
2023-05-02T04:39:16.127Z,13.70
2023-05-02T04:41:52.125Z,13.70
2023-05-02T04:44:20.400Z,14.20
2023-05-02T04:46:47.963Z,14.70
2023-05-02T04:49:15.137Z,14.70
2023-05-02T04:51:42.805Z,14.60
2023-05-02T04:54:09.988Z,14.30
2023-05-02T04:56:37.707Z,14.00
2023-05-02T04:59:05.103Z,13.80
2023-05-02T05:01:33.851Z,13.60
2023-05-02T05:04:02.686Z,13.40
2023-05-02T05:06:30.360Z,13.30
2023-05-02T05:08:57.747Z,13.20
2023-05-02T05:11:26.343Z,13.20
2023-05-02T05:13:53.747Z,13.00
2023-05-02T05:16:21.541Z,12.90
2023-05-02T05:18:49.433Z,13.00
2023-05-02T05:21:17.017Z,13.00
2023-05-02T05:23:46.253Z,13.10
2023-05-02T05:26:17.933Z,13.30
2023-05-02T05:28:48.143Z,13.50
2023-05-02T05:31:18.495Z,13.70
2023-05-02T05:33:49.880Z,14.10
2023-05-02T05:36:17.742Z,14.50
2023-05-02T05:38:46.226Z,14.80
2023-05-02T05:41:14.301Z,15.40
2023-05-02T05:43:46.694Z,16.00
2023-05-02T05:46:14.227Z,16.60
2023-05-02T05:48:41.325Z,17.20
2023-05-02T05:51:09.332Z,18.20
2023-05-02T05:53:36.526Z,19.00
2023-05-02T05:56:10.766Z,19.30
2023-05-02T05:58:39.860Z,19.60
2023-05-02T06:01:08.341Z,19.70
2023-05-02T06:03:36.516Z,19.60
2023-05-02T06:06:04.607Z,19.50
2023-05-02T06:08:32.164Z,19.40
2023-05-02T06:10:59.538Z,18.90
2023-05-02T06:13:26.670Z,18.50
2023-05-02T06:15:54.101Z,18.60
2023-05-02T06:18:21.610Z,18.80
2023-05-02T06:20:48.913Z,19.00
2023-05-02T06:23:16.086Z,18.90
2023-05-02T06:25:43.360Z,18.60
2023-05-02T06:28:10.381Z,18.50
2023-05-02T06:30:37.854Z,18.40
2023-05-02T06:33:05.492Z,18.30
2023-05-02T06:35:32.882Z,18.20
2023-05-02T06:37:59.973Z,18.20
2023-05-02T06:40:30.407Z,18.20
2023-05-02T06:42:57.490Z,18.20
2023-05-02T06:45:24.913Z,18.10
2023-05-02T06:47:51.912Z,18.00
2023-05-02T06:50:21.071Z,18.10
2023-05-02T06:52:48.157Z,17.90
2023-05-02T06:55:15.647Z,17.90
2023-05-02T06:57:43.685Z,17.80
2023-05-02T07:00:11.544Z,17.70
2023-05-02T07:02:38.771Z,17.60
2023-05-02T07:05:06.534Z,17.50
2023-05-02T07:07:33.593Z,17.40
2023-05-02T07:10:01.139Z,17.30
2023-05-02T07:12:28.797Z,17.40
2023-05-02T07:14:56.262Z,17.30
2023-05-02T07:17:24.413Z,17.30
2023-05-02T07:19:52.272Z,17.30
2023-05-02T07:22:19.800Z,17.40
2023-05-02T07:24:47.141Z,17.50
2023-05-02T07:27:14.180Z,17.60
2023-05-02T07:29:42.719Z,17.60
2023-05-02T07:32:10.082Z,17.70
2023-05-02T07:34:37.197Z,17.90
2023-05-02T07:37:04.463Z,18.00
2023-05-02T07:39:33.286Z,18.20
2023-05-02T07:42:03.471Z,18.40
2023-05-02T07:44:33.275Z,18.60
2023-05-02T07:47:00.603Z,18.70
2023-05-02T07:49:27.940Z,19.00
2023-05-02T07:51:56.196Z,19.10
2023-05-02T07:54:26.418Z,19.10
2023-05-02T07:56:58.235Z,19.20
2023-05-02T07:59:25.438Z,19.30
2023-05-02T08:01:53.033Z,19.20
2023-05-02T08:04:20.226Z,19.00
2023-05-02T08:06:48.644Z,18.70
2023-05-02T08:09:15.770Z,18.50
2023-05-02T08:11:43.072Z,18.40
2023-05-02T08:14:11.334Z,18.20
2023-05-02T08:16:38.925Z,18.10
2023-05-02T08:19:06.204Z,18.00
2023-05-02T08:21:34.210Z,17.90
2023-05-02T08:24:01.536Z,17.70
2023-05-02T08:26:29.071Z,17.60
2023-05-02T08:28:56.178Z,17.50
2023-05-02T08:31:23.535Z,17.40
2023-05-02T08:33:50.623Z,17.40
2023-05-02T08:36:18.629Z,17.30
2023-05-02T08:38:46.909Z,17.30
2023-05-02T08:41:19.626Z,17.20
2023-05-02T08:43:47.871Z,17.10
2023-05-02T08:46:17.649Z,17.10
2023-05-02T08:48:48.225Z,17.10
2023-05-02T08:51:16.999Z,17.00
2023-05-02T08:53:44.601Z,17.00
2023-05-02T08:56:13.114Z,17.00
2023-05-02T08:58:41.738Z,17.20
2023-05-02T09:01:14.972Z,17.30
2023-05-02T09:03:44.706Z,17.50
2023-05-02T09:06:15.215Z,17.40
2023-05-02T09:08:44.359Z,17.30
2023-05-02T09:11:13.046Z,17.20
2023-05-02T09:13:42.224Z,17.20
2023-05-02T09:16:18.021Z,17.10
2023-05-02T09:18:50.380Z,17.00
2023-05-02T09:21:37.497Z,16.90
2023-05-02T09:24:25.255Z,16.80
2023-05-02T09:27:03.035Z,16.70
2023-05-02T09:29:36.012Z,16.60
2023-05-02T09:32:05.754Z,16.50
2023-05-02T09:34:34.061Z,16.40
2023-05-02T09:37:02.802Z,16.30
2023-05-02T09:39:29.835Z,16.30
2023-05-02T09:41:58.564Z,16.30
2023-05-02T09:44:27.874Z,16.20
2023-05-02T09:46:57.537Z,16.20
2023-05-02T09:49:50.656Z,16.20
2023-05-02T09:52:23.550Z,16.20
2023-05-02T09:54:52.318Z,16.20
2023-05-02T09:57:19.973Z,16.30
2023-05-02T09:59:58.378Z,16.50
2023-05-02T10:02:26.461Z,16.60
2023-05-02T10:04:56.960Z,16.80
2023-05-02T10:07:26.354Z,16.70
2023-05-02T10:09:59.389Z,16.80
2023-05-02T10:12:30.425Z,16.90
2023-05-02T10:15:02.439Z,17.00
2023-05-02T10:17:34.239Z,17.20
2023-05-02T10:20:04.856Z,17.40
2023-05-02T10:22:34.304Z,17.60
2023-05-02T10:25:03.642Z,17.80
2023-05-02T10:27:32.531Z,18.00
2023-05-02T10:30:01.017Z,18.30
2023-05-02T10:32:31.877Z,18.40
2023-05-02T10:35:03.888Z,18.50
2023-05-02T10:37:36.522Z,18.70
2023-05-02T10:40:05.892Z,19.00
2023-05-02T10:42:38.766Z,19.00
2023-05-02T10:45:10.957Z,19.10
2023-05-02T10:47:38.349Z,19.10
2023-05-02T10:50:06.148Z,19.20
2023-05-02T10:52:41.368Z,19.30
2023-05-02T10:55:15.010Z,19.40
2023-05-02T10:58:00.520Z,19.60
2023-05-02T11:00:30.214Z,19.70
2023-05-02T11:02:57.963Z,19.80
2023-05-02T11:05:26.448Z,19.90
2023-05-02T11:08:23.487Z,20.00
2023-05-02T11:10:50.594Z,20.10
2023-05-02T11:13:50.937Z,20.30
2023-05-02T11:16:19.478Z,20.50
2023-05-02T11:18:59.344Z,20.70
2023-05-02T11:21:29.960Z,20.90
2023-05-02T11:24:34.939Z,20.80
2023-05-02T11:27:33.668Z,20.90
2023-05-02T11:30:02.092Z,21.10
2023-05-02T11:32:48.727Z,21.20
2023-05-02T11:35:18.892Z,21.20
2023-05-02T11:37:58.088Z,21.20
2023-05-02T11:40:27.153Z,21.40
2023-05-02T11:42:54.729Z,21.40
2023-05-02T11:45:23.883Z,21.40
2023-05-02T11:47:51.778Z,21.40
2023-05-02T11:50:19.398Z,21.40
2023-05-02T11:52:47.232Z,21.50
2023-05-02T11:55:16.687Z,21.50
2023-05-02T11:57:44.273Z,21.40
2023-05-02T12:00:13.000Z,21.50
2023-05-02T12:02:45.040Z,21.50
2023-05-02T12:05:14.431Z,21.60
2023-05-02T12:07:49.488Z,21.60
2023-05-02T12:10:17.064Z,21.70
2023-05-02T12:12:44.924Z,21.90
2023-05-02T12:15:13.446Z,22.00
2023-05-02T12:17:45.560Z,22.20
2023-05-02T12:20:17.517Z,22.30
2023-05-02T12:22:44.822Z,22.30
2023-05-02T12:25:12.340Z,22.10
2023-05-02T12:27:39.525Z,21.80
2023-05-02T12:30:07.785Z,21.50
2023-05-02T12:32:36.406Z,21.40
2023-05-02T12:35:04.297Z,21.60
2023-05-02T12:37:31.439Z,21.70
2023-05-02T12:39:58.871Z,21.80
2023-05-02T12:42:27.202Z,21.90
2023-05-02T12:44:57.030Z,21.90
2023-05-02T12:47:24.978Z,21.80
2023-05-02T12:49:59.839Z,21.70
2023-05-02T12:52:46.389Z,21.80
2023-05-02T12:55:24.573Z,22.00
2023-05-02T12:57:59.747Z,22.20
2023-05-02T13:00:27.035Z,22.20
2023-05-02T13:02:54.155Z,22.30
2023-05-02T13:05:21.624Z,22.30
2023-05-02T13:07:48.642Z,22.30
2023-05-02T13:10:18.112Z,22.20
2023-05-02T13:12:47.071Z,22.10
2023-05-02T13:15:15.420Z,22.20
2023-05-02T13:17:43.151Z,22.20
2023-05-02T13:20:11.229Z,22.30
2023-05-02T13:22:38.649Z,22.20
2023-05-02T13:25:10.498Z,22.10
2023-05-02T13:27:37.494Z,22.00
2023-05-02T13:30:08.784Z,22.00
2023-05-02T13:32:39.085Z,21.90
2023-05-02T13:35:09.461Z,21.90
2023-05-02T13:37:36.511Z,21.90
2023-05-02T13:40:05.137Z,21.80
2023-05-02T13:42:32.542Z,21.90
2023-05-02T13:45:00.029Z,21.80
2023-05-02T13:47:27.170Z,21.80
2023-05-02T13:49:54.593Z,21.80
2023-05-02T13:52:21.547Z,21.70
2023-05-02T13:54:49.158Z,21.70
2023-05-02T13:57:16.150Z,21.60
2023-05-02T13:59:43.941Z,21.50
2023-05-02T14:02:10.951Z,21.30
2023-05-02T14:04:38.323Z,21.20
2023-05-02T14:07:05.336Z,21.10
2023-05-02T14:09:33.921Z,21.00
2023-05-02T14:12:02.235Z,20.90
2023-05-02T14:14:29.702Z,20.80
2023-05-02T14:16:56.764Z,20.80
2023-05-02T14:19:24.030Z,20.70
2023-05-02T14:21:51.157Z,20.70
2023-05-02T14:24:19.401Z,20.60
2023-05-02T14:26:46.608Z,20.50
2023-05-02T14:29:14.147Z,20.50
2023-05-02T14:31:41.405Z,20.30
2023-05-02T14:34:09.039Z,20.00
2023-05-02T14:36:36.183Z,19.90
2023-05-02T14:39:03.652Z,19.80
2023-05-02T14:41:30.700Z,19.70
2023-05-02T14:43:57.995Z,19.60
2023-05-02T14:46:25.035Z,19.50
2023-05-02T14:48:52.349Z,19.50
2023-05-02T14:51:22.150Z,19.50
2023-05-02T14:53:49.633Z,19.50
2023-05-02T14:56:19.698Z,19.40
2023-05-02T14:58:47.457Z,19.30
2023-05-02T15:01:21.735Z,19.30
2023-05-02T15:04:05.977Z,19.20
2023-05-02T15:06:36.926Z,19.20
2023-05-02T15:09:05.115Z,19.20
2023-05-02T15:11:34.384Z,19.10
2023-05-02T15:14:01.745Z,18.90
2023-05-02T15:16:29.981Z,18.80
2023-05-02T15:18:57.920Z,18.80
2023-05-02T15:21:25.163Z,18.70
2023-05-02T15:23:53.011Z,18.50
2023-05-02T15:26:20.177Z,18.40
2023-05-02T15:28:47.458Z,18.30
2023-05-02T15:31:14.442Z,18.20
2023-05-02T15:33:41.750Z,18.10
2023-05-02T15:36:09.362Z,18.00
2023-05-02T15:38:39.620Z,17.90
2023-05-02T15:41:08.049Z,17.90
2023-05-02T15:43:39.709Z,17.80
2023-05-02T15:46:07.148Z,17.70
2023-05-02T15:48:34.984Z,17.60
2023-05-02T15:51:03.169Z,17.60
2023-05-02T15:53:30.756Z,17.40
2023-05-02T15:55:57.854Z,17.40
2023-05-02T15:58:25.508Z,17.10
2023-05-02T16:00:55.252Z,17.00
2023-05-02T16:03:22.922Z,16.70
2023-05-02T16:05:52.854Z,16.70
2023-05-02T16:08:23.148Z,16.70
2023-05-02T16:10:51.641Z,16.60
2023-05-02T16:13:19.554Z,16.60
2023-05-02T16:15:53.529Z,16.50
2023-05-02T16:18:23.076Z,16.30
2023-05-02T16:20:57.536Z,16.30
2023-05-02T16:23:25.855Z,16.30
2023-05-02T16:25:59.906Z,16.20
2023-05-02T16:28:27.550Z,16.10
2023-05-02T16:30:54.768Z,16.00
2023-05-02T16:33:22.394Z,16.00
2023-05-02T16:35:49.575Z,16.00
2023-05-02T16:38:19.274Z,15.80
2023-05-02T16:40:47.080Z,15.70
2023-05-02T16:43:15.181Z,15.60
2023-05-02T16:45:42.793Z,15.50
2023-05-02T16:48:11.157Z,15.20
2023-05-02T16:50:38.236Z,15.10
2023-05-02T16:53:06.214Z,14.90
2023-05-02T16:55:33.568Z,14.70
2023-05-02T16:58:00.972Z,14.40
2023-05-02T17:00:31.143Z,14.30
2023-05-02T17:02:58.558Z,14.10
2023-05-02T17:05:26.189Z,13.90
2023-05-02T17:07:53.750Z,13.90
2023-05-02T17:10:21.679Z,13.70
2023-05-02T17:12:49.498Z,13.60
2023-05-02T17:15:16.913Z,13.40
2023-05-02T17:17:44.357Z,13.30
2023-05-02T17:20:11.840Z,13.20
2023-05-02T17:22:41.526Z,13.10
2023-05-02T17:25:10.846Z,13.10
2023-05-02T17:27:40.712Z,13.00
2023-05-02T17:30:08.986Z,12.80
2023-05-02T17:32:37.807Z,12.80
2023-05-02T17:35:08.976Z,12.80
2023-05-02T17:37:39.937Z,12.70
2023-05-02T17:40:07.937Z,12.80
2023-05-02T17:42:35.441Z,12.70
2023-05-02T17:45:02.910Z,12.50
2023-05-02T17:47:30.388Z,12.40
2023-05-02T17:49:57.607Z,12.40
2023-05-02T17:52:25.010Z,12.40
2023-05-02T17:54:52.036Z,12.40
2023-05-02T17:57:22.715Z,12.40
2023-05-02T17:59:53.014Z,12.30
2023-05-02T18:02:22.324Z,12.20
2023-05-02T18:04:50.005Z,12.10
2023-05-02T18:07:23.665Z,12.00
2023-05-02T18:09:53.998Z,11.90
2023-05-02T18:12:21.299Z,11.90
2023-05-02T18:14:49.223Z,11.90
2023-05-02T18:17:20.436Z,11.80
2023-05-02T18:19:50.600Z,11.70
2023-05-02T18:22:20.132Z,11.70
2023-05-02T18:24:50.889Z,11.60
2023-05-02T18:27:18.301Z,11.60
2023-05-02T18:29:45.466Z,11.60
2023-05-02T18:32:14.424Z,11.50
2023-05-02T18:34:41.554Z,11.40
2023-05-02T18:37:09.789Z,11.30
2023-05-02T18:39:36.763Z,11.40
2023-05-02T18:42:04.790Z,11.30
2023-05-02T18:44:32.392Z,11.40
2023-05-02T18:46:59.936Z,11.30
2023-05-02T18:49:27.280Z,11.20
2023-05-02T18:51:54.822Z,11.20
2023-05-02T18:54:24.438Z,11.20
2023-05-02T18:56:52.038Z,11.20
2023-05-02T18:59:19.352Z,11.20
2023-05-02T19:01:48.768Z,11.20
2023-05-02T19:04:16.439Z,11.10
2023-05-02T19:06:44.062Z,11.00
2023-05-02T19:09:15.583Z,10.90
2023-05-02T19:11:43.161Z,10.90
2023-05-02T19:14:14.133Z,10.80
2023-05-02T19:16:43.326Z,10.80
2023-05-02T19:19:10.501Z,10.80
2023-05-02T19:21:38.008Z,10.70
2023-05-02T19:24:05.554Z,10.70
2023-05-02T19:26:33.021Z,10.70
2023-05-02T19:29:00.141Z,10.70
2023-05-02T19:31:31.712Z,10.60
2023-05-02T19:33:59.083Z,10.60
2023-05-02T19:36:27.565Z,10.40
2023-05-02T19:38:57.896Z,10.40
2023-05-02T19:41:25.983Z,10.30
2023-05-02T19:43:53.019Z,10.30
2023-05-02T19:46:20.808Z,10.20
2023-05-02T19:48:51.051Z,10.20
2023-05-02T19:51:25.760Z,10.10
2023-05-02T19:53:53.943Z,10.00
2023-05-02T19:56:25.339Z,9.90
2023-05-02T19:58:53.261Z,9.90
2023-05-02T20:01:21.310Z,9.80
2023-05-02T20:03:51.719Z,9.70
2023-05-02T20:06:19.600Z,9.70
2023-05-02T20:08:46.822Z,9.60
2023-05-02T20:11:14.369Z,9.60
2023-05-02T20:13:41.519Z,9.60
2023-05-02T20:16:10.397Z,9.60
2023-05-02T20:18:37.879Z,9.60
2023-05-02T20:21:05.331Z,9.60
2023-05-02T20:23:34.897Z,9.50
2023-05-02T20:26:03.584Z,9.50
2023-05-02T20:28:30.918Z,9.50
2023-05-02T20:30:58.564Z,9.50
2023-05-02T20:33:37.002Z,9.50
2023-05-02T20:36:09.478Z,9.50
2023-05-02T20:38:37.354Z,9.50
2023-05-02T20:41:13.169Z,9.40
2023-05-02T20:43:47.524Z,9.40
2023-05-02T20:46:19.106Z,9.40
2023-05-02T20:48:46.432Z,9.40
2023-05-02T20:51:15.050Z,9.40
2023-05-02T20:53:42.388Z,9.40
2023-05-02T20:56:09.673Z,9.40
2023-05-02T20:58:38.696Z,9.40
2023-05-02T21:01:06.104Z,9.40
2023-05-02T21:03:36.699Z,9.30
2023-05-02T21:06:04.337Z,9.30
2023-05-02T21:08:31.915Z,9.30
2023-05-02T21:10:59.251Z,9.30
2023-05-02T21:13:26.866Z,9.20
2023-05-02T21:15:57.338Z,9.30
2023-05-02T21:18:24.517Z,9.30
2023-05-02T21:20:51.967Z,9.20
2023-05-02T21:23:19.186Z,9.20
2023-05-02T21:25:46.541Z,9.20
2023-05-02T21:28:14.035Z,9.20
2023-05-02T21:30:41.298Z,9.20
2023-05-02T21:33:09.576Z,9.30
2023-05-02T21:35:37.361Z,9.30
2023-05-02T21:38:04.693Z,9.30
2023-05-02T21:40:34.791Z,9.30
2023-05-02T21:43:01.834Z,9.30
2023-05-02T21:45:29.926Z,9.40
2023-05-02T21:47:58.138Z,9.40
2023-05-02T21:50:25.466Z,9.30
2023-05-02T21:52:52.728Z,9.40
2023-05-02T21:55:20.134Z,9.40
2023-05-02T21:57:47.275Z,9.40
2023-05-02T22:00:14.864Z,9.40
2023-05-02T22:02:42.013Z,9.40
2023-05-02T22:05:09.645Z,9.40
2023-05-02T22:07:38.152Z,9.30
2023-05-02T22:10:09.585Z,9.30
2023-05-02T22:12:37.025Z,9.40
2023-05-02T22:15:10.520Z,9.30
2023-05-02T22:17:37.532Z,9.30
2023-05-02T22:20:10.140Z,9.30
2023-05-02T22:22:37.107Z,9.20
2023-05-02T22:25:04.877Z,9.20
2023-05-02T22:27:31.901Z,9.20
2023-05-02T22:29:59.296Z,9.20
2023-05-02T22:32:26.960Z,9.20
2023-05-02T22:34:54.498Z,9.20
2023-05-02T22:37:21.531Z,9.20
2023-05-02T22:39:49.233Z,9.20
2023-05-02T22:42:17.077Z,9.20
2023-05-02T22:44:53.732Z,9.20
2023-05-02T22:47:22.959Z,9.10
2023-05-02T22:49:52.188Z,9.20
2023-05-02T22:52:22.558Z,9.20
2023-05-02T22:54:49.934Z,9.20
2023-05-02T22:57:17.058Z,9.20
2023-05-02T22:59:44.806Z,9.20
2023-05-02T23:02:12.194Z,9.20
2023-05-02T23:04:39.562Z,9.20
2023-05-02T23:07:09.426Z,9.20
2023-05-02T23:09:36.956Z,9.10
2023-05-02T23:12:06.771Z,9.10
2023-05-02T23:14:35.108Z,9.10
2023-05-02T23:17:03.470Z,9.10
2023-05-02T23:19:33.532Z,9.10
2023-05-02T23:22:00.679Z,9.10
2023-05-02T23:24:28.522Z,9.00
2023-05-02T23:26:55.917Z,9.00
2023-05-02T23:29:23.869Z,9.00
2023-05-02T23:31:53.483Z,9.00
2023-05-02T23:34:21.963Z,9.00
2023-05-02T23:36:49.109Z,9.00
2023-05-02T23:39:16.450Z,8.90
2023-05-02T23:41:43.540Z,8.90
2023-05-02T23:44:10.876Z,8.90
2023-05-02T23:46:37.964Z,8.90
2023-05-02T23:49:05.339Z,8.90
2023-05-02T23:51:32.650Z,8.80
2023-05-02T23:54:00.122Z,8.80
2023-05-02T23:56:27.363Z,8.90
2023-05-02T23:58:58.285Z,8.80
